createdAt,value
2019-03-21T00:04:21.884Z,101988.27
2019-03-21T00:09:26.645Z,101982.52
2019-03-21T00:15:00.428Z,101977.12
2019-03-21T00:20:06.823Z,101968.16
2019-03-21T00:25:12.808Z,101970.45
2019-03-21T00:30:19.168Z,101973.16
2019-03-21T00:35:23.815Z,101968.63
2019-03-21T00:40:31.019Z,101968.63
2019-03-21T00:45:35.786Z,101957.92
2019-03-21T00:50:40.576Z,101965.54
2019-03-21T00:55:46.246Z,101960.70
2019-03-21T01:00:53.781Z,101957.52
2019-03-21T01:05:58.331Z,101957.52
2019-03-21T01:11:02.895Z,101954.95
2019-03-21T01:16:07.661Z,101945.80
2019-03-21T01:21:12.250Z,101942.88
2019-03-21T01:26:16.910Z,101942.88
2019-03-21T01:31:21.571Z,101940.66
2019-03-21T01:36:26.465Z,101926.00
2019-03-21T01:41:31.044Z,101921.20
2019-03-21T01:46:35.720Z,101917.75
2019-03-21T01:51:40.275Z,101924.66
2019-03-21T01:56:44.922Z,101914.55
2019-03-21T02:01:49.516Z,101899.80
2019-03-21T02:06:54.120Z,101906.34
2019-03-21T02:11:58.692Z,101906.34
2019-03-21T02:17:03.342Z,101887.28
2019-03-21T02:22:07.926Z,101902.77
2019-03-21T02:27:12.572Z,101900.59
2019-03-21T02:32:17.162Z,101900.80
2019-03-21T02:37:21.736Z,101903.64
2019-03-21T02:42:26.278Z,101887.15
2019-03-21T02:47:30.875Z,101904.86
2019-03-21T02:52:35.473Z,101900.94
2019-03-21T02:57:40.098Z,101900.18
2019-03-21T03:02:44.753Z,101901.68
2019-03-21T03:07:49.376Z,101898.11
2019-03-21T03:12:54.008Z,101904.09
2019-03-21T03:17:58.649Z,101903.27
2019-03-21T03:23:03.297Z,101906.07
2019-03-21T03:28:16.610Z,101912.41
2019-03-21T03:33:21.172Z,101918.34
2019-03-21T03:38:25.924Z,101917.03
2019-03-21T03:43:30.510Z,101917.98
2019-03-21T03:48:35.142Z,101921.77
2019-03-21T03:53:42.441Z,101921.80
2019-03-21T03:58:47.431Z,101924.17
2019-03-21T04:03:52.473Z,101924.17
2019-03-21T04:08:57.232Z,101927.34
2019-03-21T04:14:01.844Z,101931.02
2019-03-21T04:19:06.494Z,101932.11
2019-03-21T04:24:11.183Z,101932.11
2019-03-21T04:29:15.762Z,101938.87
2019-03-21T04:34:20.312Z,101934.04
2019-03-21T04:39:24.878Z,101931.75
2019-03-21T04:44:29.588Z,101927.42
2019-03-21T04:49:34.437Z,101934.15
2019-03-21T04:54:39.223Z,101930.77
2019-03-21T04:59:43.794Z,101931.45
2019-03-21T05:04:48.401Z,101940.04
2019-03-21T05:09:52.954Z,101943.34
2019-03-21T05:14:57.523Z,101947.89
2019-03-21T05:20:02.352Z,101958.73
2019-03-21T05:25:09.069Z,101958.73
2019-03-21T05:30:19.599Z,101962.06
2019-03-21T05:35:24.143Z,101962.06
2019-03-21T05:40:28.708Z,101972.53
2019-03-21T05:45:33.329Z,101975.77
2019-03-21T05:50:37.950Z,101988.81
2019-03-21T05:55:42.637Z,101988.81
2019-03-21T06:00:47.497Z,101987.58
2019-03-21T06:05:56.113Z,101987.58
2019-03-21T06:11:00.704Z,102010.98
2019-03-21T06:16:14.100Z,102016.00
2019-03-21T06:21:23.313Z,102011.55
2019-03-21T06:27:15.151Z,102012.91
2019-03-21T06:32:19.827Z,102012.91
2019-03-21T06:37:24.651Z,102025.95
2019-03-21T06:42:29.316Z,102026.42
2019-03-21T06:47:33.899Z,102030.05
2019-03-21T06:52:38.497Z,102024.67
2019-03-21T06:57:43.098Z,102024.27
2019-03-21T07:02:47.679Z,102028.30
2019-03-21T07:07:52.269Z,102022.45
2019-03-21T07:12:56.942Z,102022.92
2019-03-21T07:18:01.572Z,102038.59
2019-03-21T07:23:06.152Z,102038.59
2019-03-21T07:28:10.826Z,102035.91
2019-03-21T07:33:15.413Z,102029.17
2019-03-21T07:38:19.985Z,102029.17
2019-03-21T07:43:25.273Z,102033.22
2019-03-21T07:48:29.954Z,102046.77
2019-03-21T07:53:35.085Z,102046.77
2019-03-21T07:58:39.727Z,102053.87
2019-03-21T08:03:44.349Z,102054.79
2019-03-21T08:08:48.923Z,102055.75
2019-03-21T08:13:53.675Z,102055.75
2019-03-21T08:18:58.246Z,102054.53
2019-03-21T08:24:02.839Z,102058.75
2019-03-21T08:29:07.431Z,102045.36
2019-03-21T08:34:12.054Z,102058.22
2019-03-21T08:39:16.774Z,102053.76
2019-03-21T08:44:21.717Z,102059.52
2019-03-21T08:49:26.319Z,102058.73
2019-03-21T08:54:30.960Z,102058.71
2019-03-21T08:59:35.537Z,102050.34
2019-03-21T09:04:40.182Z,102043.30
2019-03-21T09:09:44.845Z,102047.05
2019-03-21T09:14:49.390Z,102041.73
2019-03-21T09:19:53.925Z,102041.73
2019-03-21T09:24:58.505Z,102041.78
2019-03-21T09:30:03.259Z,102031.78
2019-03-21T09:35:09.095Z,102021.97
2019-03-21T09:40:14.938Z,102021.97
2019-03-21T09:45:19.657Z,102031.58
2019-03-21T09:50:28.619Z,102023.84
2019-03-21T09:55:33.248Z,102025.74
2019-03-21T10:00:38.094Z,102028.22
2019-03-21T10:05:42.839Z,102030.91
2019-03-21T10:10:47.397Z,102031.27
2019-03-21T10:15:52.053Z,102023.05
2019-03-21T10:20:56.613Z,102021.08
2019-03-21T10:26:01.583Z,102021.30
2019-03-21T10:31:06.254Z,102018.24
2019-03-21T10:36:10.827Z,102013.80
2019-03-21T10:41:15.460Z,102013.37
2019-03-21T10:46:20.060Z,102005.84
2019-03-21T10:51:24.723Z,102011.96
2019-03-21T10:56:29.415Z,101996.73
2019-03-21T11:01:33.978Z,101996.73
2019-03-21T11:06:38.552Z,101969.77
2019-03-21T11:11:43.128Z,101969.43
2019-03-21T11:16:47.836Z,101969.43
2019-03-21T11:21:52.473Z,101976.31
2019-03-21T11:26:57.012Z,101976.31
2019-03-21T11:32:01.591Z,101959.94
2019-03-21T11:37:06.316Z,101951.66
2019-03-21T11:42:10.913Z,101937.60
2019-03-21T11:47:15.487Z,101932.62
2019-03-21T11:52:20.133Z,101932.62
2019-03-21T11:57:24.886Z,101922.80
2019-03-21T12:02:29.669Z,101924.47
2019-03-21T12:07:34.357Z,101915.99
2019-03-21T12:12:39.037Z,101903.99
2019-03-21T12:17:43.693Z,101903.99
2019-03-21T12:22:48.298Z,101904.11
2019-03-21T12:27:52.935Z,101895.84
2019-03-21T12:32:57.520Z,101889.59
2019-03-21T12:38:02.237Z,101889.59
2019-03-21T12:43:07.496Z,101888.21
2019-03-21T12:48:12.274Z,101884.28
2019-03-21T12:53:16.892Z,101875.08
2019-03-21T12:58:21.479Z,101873.58
2019-03-21T13:03:26.129Z,101850.52
2019-03-21T13:08:34.013Z,101837.86
2019-03-21T13:13:37.230Z,101830.85
2019-03-21T13:18:41.945Z,101842.51
2019-03-21T13:23:46.668Z,101836.66
2019-03-21T13:28:51.388Z,101834.45
2019-03-21T13:33:56.174Z,101827.52
2019-03-21T13:39:00.793Z,101821.18
2019-03-21T13:44:05.423Z,101814.50
2019-03-21T13:49:10.037Z,101804.55
2019-03-21T13:54:14.603Z,101804.55
2019-03-21T13:59:19.282Z,101799.56
2019-03-21T14:04:23.868Z,101783.76
2019-03-21T14:09:28.596Z,101791.56
2019-03-21T14:14:33.248Z,101783.41
2019-03-21T14:19:37.884Z,101781.20
2019-03-21T14:24:42.516Z,101769.23
2019-03-21T14:29:47.096Z,101769.23
2019-03-21T14:34:51.726Z,101759.69
2019-03-21T14:39:56.508Z,101757.55
2019-03-21T14:45:01.316Z,101760.40
2019-03-21T14:50:07.431Z,101750.83
2019-03-21T14:55:14.075Z,101757.08
2019-03-21T15:00:19.229Z,101741.47
2019-03-21T15:05:23.809Z,101752.52
2019-03-21T15:10:28.364Z,101752.56
2019-03-21T15:15:32.915Z,101735.97
2019-03-21T15:20:37.498Z,101735.97
2019-03-21T15:25:42.189Z,101750.18
2019-03-21T15:30:46.778Z,101750.18
2019-03-21T15:35:51.418Z,101737.19
2019-03-21T15:40:56.042Z,101737.36
2019-03-21T15:46:00.705Z,101732.77
2019-03-21T15:51:05.567Z,101736.25
2019-03-21T15:56:10.147Z,101729.78
2019-03-21T16:06:23.795Z,101728.73
2019-03-21T16:11:28.426Z,101726.46
2019-03-21T16:16:33.032Z,101731.38
2019-03-21T16:21:37.608Z,101732.72
2019-03-21T16:26:44.643Z,101725.50
2019-03-21T16:31:49.235Z,101726.46
2019-03-21T16:36:53.856Z,101706.17
2019-03-21T16:41:58.544Z,101706.17
2019-03-21T16:47:03.114Z,101725.45
2019-03-21T16:52:07.740Z,101716.95
2019-03-21T16:57:12.433Z,101706.43
2019-03-21T17:02:18.384Z,101719.13
2019-03-21T17:07:23.073Z,101723.99
2019-03-21T17:12:27.683Z,101733.10
2019-03-21T17:17:32.358Z,101729.94
2019-03-21T17:22:37.004Z,101735.83
2019-03-21T17:27:42.170Z,101734.11
2019-03-21T17:32:46.822Z,101737.34
2019-03-21T17:37:53.650Z,101736.95
2019-03-21T17:42:58.267Z,101741.41
2019-03-21T17:48:02.846Z,101736.31
2019-03-21T17:53:07.411Z,101736.31
2019-03-21T17:58:11.995Z,101746.08
2019-03-21T18:08:22.967Z,101747.27
2019-03-21T18:13:27.653Z,101751.21
2019-03-21T18:23:39.582Z,101771.58
2019-03-21T18:28:44.284Z,101761.16
2019-03-21T18:33:48.898Z,101761.16
2019-03-21T18:38:58.992Z,101777.83
2019-03-21T18:44:00.535Z,101774.70
2019-03-21T18:49:05.138Z,101779.97
2019-03-21T18:54:09.828Z,101783.53
2019-03-21T18:59:14.542Z,101785.05
2019-03-21T19:04:19.295Z,101784.98
2019-03-21T19:09:24.055Z,101786.01
2019-03-21T19:14:28.767Z,101774.66
2019-03-21T19:19:33.549Z,101780.05
2019-03-21T19:24:39.904Z,101775.44
2019-03-21T19:29:44.820Z,101778.84
2019-03-21T19:34:49.937Z,101783.28
2019-03-21T19:39:54.892Z,101783.28
2019-03-21T19:44:59.643Z,101782.37
2019-03-21T19:50:06.970Z,101780.70
2019-03-21T19:55:12.329Z,101782.75
2019-03-21T20:00:18.665Z,101782.75
2019-03-21T20:05:23.672Z,101781.88
2019-03-21T20:10:28.477Z,101788.08
2019-03-21T20:15:33.184Z,101786.01
2019-03-21T20:20:38.266Z,101791.06
2019-03-21T20:25:43.492Z,101772.80
2019-03-21T20:30:48.482Z,101790.20
2019-03-21T20:35:53.104Z,101790.20
2019-03-21T20:40:58.004Z,101786.37
2019-03-21T20:46:02.852Z,101783.98
2019-03-21T20:51:07.656Z,101783.98
2019-03-21T20:56:12.361Z,101784.77
2019-03-21T21:01:17.029Z,101767.20
2019-03-21T21:06:21.878Z,101777.69
2019-03-21T21:11:26.930Z,101771.16
2019-03-21T21:16:32.743Z,101781.34
2019-03-21T21:21:37.784Z,101781.73
2019-03-21T21:26:42.889Z,101786.25
2019-03-21T21:31:48.242Z,101785.47
2019-03-21T21:36:53.447Z,101791.73
2019-03-21T21:41:59.743Z,101798.56
2019-03-21T21:47:07.758Z,101778.77
2019-03-21T21:52:12.792Z,101787.43
2019-03-21T21:57:18.019Z,101797.73
2019-03-21T22:02:23.097Z,101790.52
2019-03-21T22:07:27.945Z,101782.91
2019-03-21T22:12:32.919Z,101790.13
2019-03-21T22:17:37.860Z,101790.13
2019-03-21T22:22:42.881Z,101804.57
2019-03-21T22:27:47.893Z,101804.57
2019-03-21T22:32:52.742Z,101801.00
2019-03-21T22:37:57.693Z,101799.78
2019-03-21T22:43:02.669Z,101801.95
2019-03-21T22:48:07.844Z,101793.03
2019-03-21T22:53:12.705Z,101804.26
2019-03-21T22:58:31.193Z,101800.66
2019-03-21T23:03:26.869Z,101799.78
2019-03-21T23:08:32.148Z,101789.87
2019-03-21T23:13:37.440Z,101787.64
2019-03-21T23:18:42.287Z,101792.13
2019-03-21T23:23:47.129Z,101792.13
2019-03-21T23:28:52.132Z,101788.12
2019-03-21T23:33:57.352Z,101789.47
2019-03-21T23:39:02.024Z,101784.56
2019-03-21T23:44:06.827Z,101784.72
2019-03-21T23:49:11.663Z,101782.55
2019-03-21T23:54:16.417Z,101776.08
2019-03-21T23:59:21.258Z,101776.77
